createdAt,value
2023-03-02T00:02:11.052Z,99645.06
2023-03-02T00:04:58.856Z,99637.94
2023-03-02T00:07:44.143Z,99635.19
2023-03-02T00:10:30.252Z,99634.78
2023-03-02T00:13:15.948Z,99626.44
2023-03-02T00:16:01.380Z,99630.78
2023-03-02T00:18:46.693Z,99636.72
2023-03-02T00:21:31.984Z,99635.16
2023-03-02T00:24:17.395Z,99628.78
2023-03-02T00:27:02.612Z,99626.44
2023-03-02T00:29:48.074Z,99632.41
2023-03-02T00:32:34.359Z,99628.06
2023-03-02T00:35:20.183Z,99627.25
2023-03-02T00:38:07.288Z,99619.34
2023-03-02T00:40:52.738Z,99622.53
2023-03-02T00:43:38.454Z,99623.75
2023-03-02T00:46:25.276Z,99627.31
2023-03-02T00:49:11.036Z,99617.41
2023-03-02T00:51:56.167Z,99612.66
2023-03-02T00:54:41.574Z,99609.88
2023-03-02T00:57:27.431Z,99599.19
2023-03-02T01:00:14.591Z,99586.91
2023-03-02T01:03:00.389Z,99584.50
2023-03-02T01:05:46.664Z,99584.50
2023-03-02T01:08:32.000Z,99586.06
2023-03-02T01:11:20.120Z,99588.84
2023-03-02T01:14:05.774Z,99582.09
2023-03-02T01:16:51.535Z,99582.09
2023-03-02T01:19:37.951Z,99587.66
2023-03-02T01:22:24.358Z,99589.63
2023-03-02T01:25:10.939Z,99584.44
2023-03-02T01:27:56.167Z,99583.66
2023-03-02T01:30:41.547Z,99579.69
2023-03-02T01:33:27.963Z,99574.13
2023-03-02T01:36:13.189Z,99576.91
2023-03-02T01:38:58.542Z,99570.16
2023-03-02T01:41:46.234Z,99571.00
2023-03-02T01:44:57.377Z,99572.97
2023-03-02T01:47:42.999Z,99565.06
2023-03-02T01:50:33.322Z,99565.06
2023-03-02T01:53:19.322Z,99564.25
2023-03-02T01:56:05.775Z,99564.31
2023-03-02T01:58:54.465Z,99567.09
2023-03-02T02:01:42.984Z,99561.53
2023-03-02T02:04:30.442Z,99562.72
2023-03-02T02:07:16.475Z,99556.38
2023-03-02T02:10:03.488Z,99552.44
2023-03-02T02:12:48.791Z,99542.09
2023-03-02T02:15:34.612Z,99537.72
2023-03-02T02:18:20.042Z,99554.38
2023-03-02T02:21:06.777Z,99545.25
2023-03-02T02:23:51.961Z,99542.50
2023-03-02T02:26:43.111Z,99548.03
2023-03-02T02:29:35.927Z,99549.59
2023-03-02T02:32:31.582Z,99546.81
2023-03-02T02:35:22.288Z,99534.91
2023-03-02T02:38:08.906Z,99535.31
2023-03-02T02:40:58.759Z,99530.56
2023-03-02T02:43:49.622Z,99532.16
2023-03-02T02:46:35.409Z,99530.56
2023-03-02T02:49:39.211Z,99532.94
2023-03-02T02:55:19.243Z,99517.13
2023-03-02T02:58:20.144Z,99526.63
2023-03-02T03:01:06.659Z,99513.97
2023-03-02T03:04:06.820Z,99526.25
2023-03-02T03:06:56.676Z,99517.94
2023-03-02T03:09:42.164Z,99525.09
2023-03-02T03:12:29.188Z,99521.16
2023-03-02T03:15:18.870Z,99520.75
2023-03-02T03:18:04.966Z,99519.56
2023-03-02T03:20:51.304Z,99523.09
2023-03-02T03:23:38.246Z,99521.53
2023-03-02T03:26:25.078Z,99518.69
2023-03-02T03:29:12.226Z,99508.34
2023-03-02T03:31:59.901Z,99512.72
2023-03-02T03:34:47.119Z,99510.72
2023-03-02T03:37:42.259Z,99509.50
2023-03-02T03:40:29.061Z,99511.50
2023-03-02T03:43:15.249Z,99509.09
2023-03-02T03:46:07.638Z,99519.38
2023-03-02T03:48:53.331Z,99509.88
2023-03-02T03:51:38.771Z,99512.22
2023-03-02T03:54:24.911Z,99509.81
2023-03-02T03:57:12.136Z,99506.25
2023-03-02T03:59:58.196Z,99511.44
2023-03-02T04:02:43.495Z,99512.22
2023-03-02T04:05:31.680Z,99519.31
2023-03-02T04:08:19.506Z,99528.88
2023-03-02T04:11:05.189Z,99519.31
2023-03-02T04:13:50.679Z,99524.88
2023-03-02T04:16:37.639Z,99524.09
2023-03-02T04:19:23.383Z,99508.66
2023-03-02T04:22:12.065Z,99516.16
2023-03-02T04:24:57.407Z,99522.06
2023-03-02T04:27:43.699Z,99523.22
2023-03-02T04:30:29.411Z,99518.91
2023-03-02T04:33:15.254Z,99512.91
2023-03-02T04:36:00.709Z,99513.28
2023-03-02T04:38:46.914Z,99514.88
2023-03-02T04:41:32.355Z,99512.47
2023-03-02T04:44:19.232Z,99513.63
2023-03-02T04:47:04.614Z,99514.81
2023-03-02T04:49:54.584Z,99519.97
2023-03-02T04:52:40.445Z,99519.13
2023-03-02T04:55:27.283Z,99515.16
2023-03-02T04:58:12.929Z,99511.16
2023-03-02T05:01:02.194Z,99519.06
2023-03-02T05:03:48.381Z,99513.47
2023-03-02T05:06:34.066Z,99522.16
2023-03-02T05:09:19.709Z,99509.88
2023-03-02T05:12:05.661Z,99507.09
2023-03-02T05:14:53.145Z,99501.53
2023-03-02T05:17:38.565Z,99499.13
2023-03-02T05:20:27.543Z,99489.22
2023-03-02T05:23:25.158Z,99494.38
2023-03-02T05:26:11.489Z,99494.38
2023-03-02T05:28:57.617Z,99485.19
2023-03-02T05:31:45.033Z,99482.41
2023-03-02T05:34:30.726Z,99485.97
2023-03-02T05:37:15.964Z,99487.56
2023-03-02T05:40:02.118Z,99481.59
2023-03-02T05:42:48.658Z,99489.50
2023-03-02T05:45:38.613Z,99489.03
2023-03-02T05:48:23.916Z,99490.25
2023-03-02T05:51:09.511Z,99481.50
2023-03-02T05:53:55.349Z,99487.00
2023-03-02T05:56:41.587Z,99490.16
2023-03-02T05:59:27.069Z,99493.28
2023-03-02T06:02:13.419Z,99490.88
2023-03-02T06:04:58.648Z,99496.44
2023-03-02T06:07:44.672Z,99500.00
2023-03-02T06:10:29.938Z,99504.78
2023-03-02T06:13:15.800Z,99498.84
2023-03-02T06:16:01.152Z,99502.84
2023-03-02T06:18:46.843Z,99518.00
2023-03-02T06:21:32.593Z,99514.41
2023-03-02T06:24:18.005Z,99523.56
2023-03-02T06:27:03.639Z,99517.28
2023-03-02T06:29:49.350Z,99513.75
2023-03-02T06:32:35.588Z,99518.94
2023-03-02T06:35:20.797Z,99518.22
2023-03-02T06:38:06.071Z,99516.25
2023-03-02T06:40:51.342Z,99515.88
2023-03-02T06:43:36.562Z,99515.50
2023-03-02T06:46:21.950Z,99513.56
2023-03-02T06:49:07.133Z,99515.94
2023-03-02T06:51:52.393Z,99516.34
2023-03-02T06:54:37.613Z,99512.03
2023-03-02T06:57:22.948Z,99508.88
2023-03-02T07:00:16.973Z,99506.50
2023-03-02T07:03:02.519Z,99509.72
2023-03-02T07:05:49.034Z,99512.09
2023-03-02T07:08:34.456Z,99509.72
2023-03-02T07:11:19.764Z,99514.50
2023-03-02T07:14:05.040Z,99500.25
2023-03-02T07:16:50.320Z,99505.78
2023-03-02T07:19:35.655Z,99503.44
2023-03-02T07:22:20.940Z,99499.88
2023-03-02T07:25:07.309Z,99492.75
2023-03-02T07:27:52.595Z,99503.84
2023-03-02T07:30:38.039Z,99491.56
2023-03-02T07:33:23.502Z,99499.91
2023-03-02T07:36:08.973Z,99499.13
2023-03-02T07:38:55.064Z,99496.75
2023-03-02T07:41:40.579Z,99490.38
2023-03-02T07:44:26.646Z,99490.81
2023-03-02T07:47:12.127Z,99488.03
2023-03-02T07:49:57.386Z,99490.00
2023-03-02T07:52:43.057Z,99497.56
2023-03-02T07:55:28.824Z,99497.94
2023-03-02T07:58:14.173Z,99497.16
2023-03-02T08:00:59.364Z,99497.16
2023-03-02T08:03:44.905Z,99492.84
2023-03-02T08:06:30.677Z,99496.38
2023-03-02T08:09:17.231Z,99499.56
2023-03-02T08:12:02.804Z,99504.34
2023-03-02T08:14:47.995Z,99505.13
2023-03-02T08:17:33.270Z,99501.56
2023-03-02T08:20:18.328Z,99499.56
2023-03-02T08:23:03.584Z,99503.56
2023-03-02T08:25:48.821Z,99510.66
2023-03-02T08:28:34.374Z,99498.38
2023-03-02T08:31:19.726Z,99505.88
2023-03-02T08:34:04.850Z,99503.88
2023-03-02T08:36:49.941Z,99504.25
2023-03-02T08:39:35.283Z,99508.19
2023-03-02T08:42:20.533Z,99506.97
2023-03-02T08:45:06.351Z,99506.09
2023-03-02T08:47:57.370Z,99500.88
2023-03-02T08:50:42.843Z,99500.03
2023-03-02T08:53:31.309Z,99503.13
2023-03-02T08:56:20.964Z,99497.56
2023-03-02T08:59:11.308Z,99497.09
2023-03-02T09:01:58.888Z,99487.16
2023-03-02T09:04:44.269Z,99479.97
2023-03-02T09:07:30.600Z,99483.91
2023-03-02T09:10:16.046Z,99485.44
2023-03-02T09:13:01.664Z,99474.69
2023-03-02T09:15:47.230Z,99479.41
2023-03-02T09:18:32.524Z,99470.66
2023-03-02T09:21:18.403Z,99466.25
2023-03-02T09:24:04.153Z,99469.41
2023-03-02T09:26:49.872Z,99474.13
2023-03-02T09:29:35.329Z,99470.94
2023-03-02T09:32:20.719Z,99473.31
2023-03-02T09:35:06.652Z,99468.13
2023-03-02T09:37:52.110Z,99465.66
2023-03-02T09:40:44.817Z,99473.59
2023-03-02T09:43:33.391Z,99478.75
2023-03-02T09:46:40.616Z,99475.97
2023-03-02T09:49:41.224Z,99473.19
2023-03-02T09:52:41.033Z,99473.97
2023-03-02T09:55:32.401Z,99469.19
2023-03-02T09:58:20.833Z,99472.34
2023-03-02T10:01:15.495Z,99469.94
2023-03-02T10:04:09.738Z,99476.72
2023-03-02T10:07:01.499Z,99478.28
2023-03-02T10:09:47.299Z,99467.56
2023-03-02T10:13:03.914Z,99469.94
2023-03-02T10:16:01.279Z,99465.97
2023-03-02T10:19:04.968Z,99466.34
2023-03-02T10:22:21.585Z,99470.69
2023-03-02T10:25:30.578Z,99467.53
2023-03-02T10:28:26.720Z,99459.19
2023-03-02T10:31:24.482Z,99458.41
2023-03-02T10:34:14.172Z,99461.97
2023-03-02T10:36:59.552Z,99456.81
2023-03-02T10:39:45.055Z,99458.38
2023-03-02T10:42:36.621Z,99449.25
2023-03-02T10:45:29.788Z,99456.41
2023-03-02T10:48:15.499Z,99456.41
2023-03-02T10:51:00.749Z,99456.41
2023-03-02T10:53:46.718Z,99450.06
2023-03-02T10:56:33.792Z,99450.84
2023-03-02T10:59:26.114Z,99451.25
2023-03-02T11:02:23.920Z,99446.50
2023-03-02T11:05:28.509Z,99443.00
2023-03-02T11:08:19.476Z,99435.84
2023-03-02T11:11:05.112Z,99437.47
2023-03-02T11:13:50.576Z,99428.00
2023-03-02T11:16:35.759Z,99422.44
2023-03-02T11:19:37.441Z,99418.50
2023-03-02T11:22:59.190Z,99412.16
2023-03-02T11:25:52.014Z,99400.69
2023-03-02T11:28:53.766Z,99398.31
2023-03-02T11:31:53.308Z,99395.94
2023-03-02T11:34:49.438Z,99389.59
2023-03-02T11:37:53.395Z,99388.47
2023-03-02T11:40:48.689Z,99384.91
2023-03-02T11:43:33.851Z,99385.31
2023-03-02T11:46:26.502Z,99383.75
2023-03-02T11:49:19.479Z,99382.16
2023-03-02T11:52:04.938Z,99378.59
2023-03-02T11:54:57.236Z,99375.47
2023-03-02T11:57:49.484Z,99368.75
2023-03-02T12:00:41.578Z,99366.38
2023-03-02T12:03:33.192Z,99365.59
2023-03-02T12:06:18.724Z,99361.25
2023-03-02T12:09:22.372Z,99358.13
2023-03-02T12:12:11.067Z,99356.13
2023-03-02T12:14:56.487Z,99356.94
2023-03-02T12:17:41.707Z,99349.06
2023-03-02T12:20:29.037Z,99346.28
2023-03-02T12:23:24.165Z,99348.69
2023-03-02T12:26:31.784Z,99342.75
2023-03-02T12:29:16.979Z,99348.31
2023-03-02T12:32:30.412Z,99343.59
2023-03-02T12:35:21.288Z,99330.91
2023-03-02T12:38:06.577Z,99333.31
2023-03-02T12:41:03.812Z,99331.75
2023-03-02T12:44:00.796Z,99323.84
2023-03-02T12:46:48.813Z,99321.47
2023-03-02T12:49:49.668Z,99319.53
2023-03-02T12:52:36.630Z,99316.00
2023-03-02T12:55:22.028Z,99316.41
2023-03-02T12:58:19.271Z,99314.84
2023-03-02T13:01:05.833Z,99313.25
2023-03-02T13:03:52.503Z,99307.31
2023-03-02T13:06:39.613Z,99303.38
2023-03-02T13:09:24.917Z,99293.03
2023-03-02T13:12:14.387Z,99295.41
2023-03-02T13:15:00.018Z,99275.91
2023-03-02T13:17:54.197Z,99279.81
2023-03-02T13:20:39.588Z,99277.78
2023-03-02T13:23:26.058Z,99280.91
2023-03-02T13:26:32.124Z,99277.28
2023-03-02T13:29:20.541Z,99279.25
2023-03-02T13:32:24.273Z,99264.50
2023-03-02T13:35:19.489Z,99267.22
2023-03-02T13:38:13.735Z,99266.78
2023-03-02T13:40:59.418Z,99269.13
2023-03-02T13:43:44.796Z,99267.88
2023-03-02T13:46:36.149Z,99266.25
2023-03-02T13:49:36.796Z,99259.06
2023-03-02T13:52:30.906Z,99257.50
2023-03-02T13:55:18.533Z,99264.56
2023-03-02T13:58:03.945Z,99260.59
2023-03-02T14:00:50.677Z,99255.03
2023-03-02T14:03:36.406Z,99259.78
2023-03-02T14:06:21.806Z,99250.25
2023-03-02T14:09:07.331Z,99239.16
2023-03-02T14:11:54.592Z,99249.81
2023-03-02T14:14:40.838Z,99246.25
2023-03-02T14:17:26.836Z,99241.84
2023-03-02T14:20:19.025Z,99250.13
2023-03-02T14:23:06.881Z,99241.44
2023-03-02T14:25:54.249Z,99240.25
2023-03-02T14:28:40.295Z,99233.47
2023-03-02T14:31:26.010Z,99233.09
2023-03-02T14:34:16.458Z,99228.75
2023-03-02T14:37:08.068Z,99223.22
2023-03-02T14:39:56.829Z,99222.75
2023-03-02T14:42:42.453Z,99219.97
2023-03-02T14:45:30.494Z,99220.34
2023-03-02T14:48:16.087Z,99219.16
2023-03-02T14:51:04.130Z,99217.56
2023-03-02T14:53:52.768Z,99210.38
2023-03-02T14:56:38.449Z,99214.72
2023-03-02T14:59:23.628Z,99204.34
2023-03-02T15:02:24.284Z,99206.25
2023-03-02T15:05:10.646Z,99211.78
2023-03-02T15:07:58.698Z,99206.16
2023-03-02T15:10:46.309Z,99205.72
2023-03-02T15:13:31.606Z,99195.75
2023-03-02T15:16:16.843Z,99205.22
2023-03-02T15:19:02.149Z,99196.47
2023-03-02T15:21:51.178Z,99200.81
2023-03-02T15:24:37.283Z,99199.63
2023-03-02T15:27:23.698Z,99197.19
2023-03-02T15:30:09.749Z,99203.88
2023-03-02T15:32:55.498Z,99198.25
2023-03-02T15:35:41.335Z,99200.97
2023-03-02T15:38:27.168Z,99207.25
2023-03-02T15:41:13.779Z,99204.03
2023-03-02T15:43:58.983Z,99205.94
2023-03-02T15:46:44.317Z,99199.53
2023-03-02T15:49:32.371Z,99202.66
2023-03-02T15:52:19.952Z,99194.41
2023-03-02T15:55:05.529Z,99201.16
2023-03-02T15:57:53.936Z,99195.25
2023-03-02T16:00:40.033Z,99198.03
2023-03-02T16:03:26.288Z,99194.13
2023-03-02T16:06:13.376Z,99192.56
2023-03-02T16:08:58.604Z,99206.47
2023-03-02T16:11:43.973Z,99203.69
2023-03-02T16:14:29.698Z,99194.63
2023-03-02T16:17:18.600Z,99207.75
2023-03-02T16:20:04.643Z,99208.16
2023-03-02T16:22:49.979Z,99209.34
2023-03-02T16:25:39.825Z,99213.00
2023-03-02T16:28:24.953Z,99209.03
2023-03-02T16:31:13.402Z,99217.44
2023-03-02T16:33:59.051Z,99223.03
2023-03-02T16:36:45.028Z,99228.34
2023-03-02T16:39:30.438Z,99230.81
2023-03-02T16:42:16.585Z,99232.44
2023-03-02T16:45:02.128Z,99231.28
2023-03-02T16:47:49.412Z,99230.97
2023-03-02T16:50:35.083Z,99233.81
2023-03-02T16:53:20.420Z,99235.81
2023-03-02T16:56:05.641Z,99233.41
2023-03-02T16:58:51.508Z,99232.59
2023-03-02T17:01:37.122Z,99234.25
2023-03-02T17:04:22.523Z,99235.88
2023-03-02T17:07:08.520Z,99241.50
2023-03-02T17:09:53.737Z,99242.66
2023-03-02T17:12:39.002Z,99234.31
2023-03-02T17:15:24.220Z,99245.44
2023-03-02T17:18:10.022Z,99246.22
2023-03-02T17:20:57.832Z,99250.13
2023-03-02T17:23:43.814Z,99246.13
2023-03-02T17:26:29.670Z,99255.69
2023-03-02T17:29:15.154Z,99260.03
2023-03-02T17:32:00.389Z,99255.28
2023-03-02T17:34:45.537Z,99257.19
2023-03-02T17:37:30.828Z,99251.94
2023-03-02T17:40:17.273Z,99258.69
2023-03-02T17:43:04.877Z,99259.47
2023-03-02T17:45:51.186Z,99258.59
2023-03-02T17:48:36.548Z,99259.41
2023-03-02T17:51:23.186Z,99257.03
2023-03-02T17:54:09.417Z,99253.03
2023-03-02T17:56:55.129Z,99253.84
2023-03-02T17:59:40.408Z,99257.81
2023-03-02T18:02:25.581Z,99265.03
2023-03-02T18:05:11.361Z,99265.03
2023-03-02T18:07:57.555Z,99265.44
2023-03-02T18:10:44.995Z,99264.25
2023-03-02T18:13:30.813Z,99275.38
2023-03-02T18:16:17.171Z,99269.09
2023-03-02T18:19:03.408Z,99275.50
2023-03-02T18:21:48.968Z,99270.00
2023-03-02T18:24:34.527Z,99283.53
2023-03-02T18:27:20.436Z,99289.16
2023-03-02T18:30:07.416Z,99291.16
2023-03-02T18:32:53.784Z,99290.81
2023-03-02T18:35:39.534Z,99292.41
2023-03-02T18:38:30.933Z,99294.84
2023-03-02T18:41:16.301Z,99301.59
2023-03-02T18:44:04.094Z,99296.41
2023-03-02T18:46:49.643Z,99297.97
2023-03-02T18:49:35.072Z,99299.91
2023-03-02T18:52:20.569Z,99293.13
2023-03-02T18:55:06.329Z,99293.13
2023-03-02T18:57:54.045Z,99297.50
2023-03-02T19:00:39.514Z,99300.28
2023-03-02T19:03:25.991Z,99295.91
2023-03-02T19:06:14.993Z,99299.50
2023-03-02T19:09:00.652Z,99306.63
2023-03-02T19:11:47.072Z,99313.72
2023-03-02T19:14:33.500Z,99309.75
2023-03-02T19:17:18.784Z,99313.31
2023-03-02T19:20:04.872Z,99313.72
2023-03-02T19:22:50.604Z,99318.50
2023-03-02T19:25:35.843Z,99325.28
2023-03-02T19:28:21.841Z,99315.38
2023-03-02T19:31:08.987Z,99319.72
2023-03-02T19:33:54.477Z,99320.91
2023-03-02T19:36:40.794Z,99320.91
2023-03-02T19:39:26.408Z,99328.06
2023-03-02T19:42:11.777Z,99323.69
2023-03-02T19:44:57.226Z,99324.44
2023-03-02T19:47:43.100Z,99317.72
2023-03-02T19:50:29.512Z,99320.09
2023-03-02T19:53:16.957Z,99322.88
2023-03-02T19:56:07.302Z,99318.88
2023-03-02T19:58:54.118Z,99320.88
2023-03-02T20:01:39.431Z,99322.88
2023-03-02T20:04:24.506Z,99319.25
2023-03-02T20:07:09.749Z,99323.59
2023-03-02T20:09:55.669Z,99324.75
2023-03-02T20:12:40.890Z,99323.13
2023-03-02T20:15:28.141Z,99321.91
2023-03-02T20:18:18.720Z,99327.03
2023-03-02T20:21:04.088Z,99332.19
2023-03-02T20:29:12.079Z,99340.88
2023-03-02T20:31:57.312Z,99340.47
2023-03-02T20:34:42.660Z,99342.06
2023-03-02T20:37:26.441Z,99334.88
2023-03-02T20:40:12.633Z,99347.53
2023-03-02T20:42:58.374Z,99337.56
2023-03-02T20:45:44.332Z,99345.91
2023-03-02T20:48:29.674Z,99341.16
2023-03-02T20:51:15.300Z,99342.72
2023-03-02T20:54:00.800Z,99348.28
2023-03-02T20:56:46.266Z,99344.72
2023-03-02T20:59:32.174Z,99341.16
2023-03-02T21:02:19.904Z,99346.28
2023-03-02T21:05:05.474Z,99337.53
2023-03-02T21:07:52.022Z,99329.19
2023-03-02T21:10:38.881Z,99333.09
2023-03-02T21:13:24.197Z,99330.75
2023-03-02T21:16:14.797Z,99325.19
2023-03-02T21:19:00.138Z,99327.53
2023-03-02T21:21:45.574Z,99322.41
2023-03-02T21:24:30.992Z,99318.84
2023-03-02T21:27:16.390Z,99326.41
2023-03-02T21:30:06.066Z,99322.06
2023-03-02T21:32:51.552Z,99318.44
2023-03-02T21:35:37.103Z,99323.13
2023-03-02T21:38:22.375Z,99318.78
2023-03-02T21:41:07.686Z,99321.56
2023-03-02T21:43:53.005Z,99322.41
2023-03-02T21:46:38.977Z,99331.97
2023-03-02T21:49:24.460Z,99328.41
2023-03-02T21:52:09.549Z,99318.91
2023-03-02T21:54:54.810Z,99321.69
2023-03-02T21:57:40.735Z,99321.34
2023-03-02T22:00:33.988Z,99318.19
2023-03-02T22:03:19.651Z,99317.06
2023-03-02T22:06:05.142Z,99320.22
2023-03-02T22:08:51.344Z,99317.47
2023-03-02T22:11:37.900Z,99314.34
2023-03-02T22:14:23.511Z,99315.19
2023-03-02T22:17:18.647Z,99313.28
2023-03-02T22:20:16.444Z,99324.81
2023-03-02T22:23:02.125Z,99322.44
2023-03-02T22:25:51.974Z,99323.28
2023-03-02T22:28:40.966Z,99322.56
2023-03-02T22:31:26.869Z,99331.66
2023-03-02T22:34:16.190Z,99332.88
2023-03-02T22:37:10.609Z,99328.59
2023-03-02T22:39:57.636Z,99333.00
2023-03-02T22:42:43.257Z,99329.09
2023-03-02T22:45:29.027Z,99326.34
2023-03-02T22:48:20.210Z,99334.72
2023-03-02T22:51:16.461Z,99333.22
2023-03-02T22:54:01.675Z,99325.34
2023-03-02T22:56:49.626Z,99316.66
2023-03-02T22:59:37.477Z,99314.28
2023-03-02T23:02:26.101Z,99311.50
2023-03-02T23:05:24.827Z,99317.50
2023-03-02T23:08:29.962Z,99318.69
2023-03-02T23:11:18.222Z,99312.34
2023-03-02T23:14:14.295Z,99323.88
2023-03-02T23:17:11.360Z,99329.09
2023-03-02T23:19:56.551Z,99335.06
2023-03-02T23:22:43.248Z,99332.28
2023-03-02T23:25:28.764Z,99332.69
2023-03-02T23:28:14.273Z,99330.31
2023-03-02T23:30:59.799Z,99331.53
2023-03-02T23:33:45.854Z,99329.16
2023-03-02T23:36:32.106Z,99324.84
2023-03-02T23:39:17.742Z,99313.34
2023-03-02T23:42:03.077Z,99323.69
2023-03-02T23:44:48.241Z,99319.69
2023-03-02T23:47:33.487Z,99314.53
2023-03-02T23:50:18.983Z,99312.22
2023-03-02T23:53:04.624Z,99321.31
2023-03-02T23:55:52.598Z,99321.72
2023-03-02T23:58:38.094Z,99332.84
